Time;durP1;ratioP1;P1;durP2;ratioP2;P2;SDS_P1;SDS_P2;PMS_P1;PMS_P2;Temp;Humidity;BMP_temperature;BMP_pressure;BME280_temperature;BME280_humidity;BME280_pressure;Samples;Min_cycle;Max_cycle;Signal;HPM_P1;HPM_P2
2023/10/31 00:01:49;;;;;;;5.88;1.27;;;10.60;99.90;;;;;;5095732;28;20071;-77
2023/10/31 00:04:14;;;;;;;10.80;1.50;;;10.60;99.90;;;;;;5077843;28;20040;-77
2023/10/31 00:06:40;;;;;;;8.32;2.03;;;10.60;99.90;;;;;;5077826;28;20044;-77
2023/10/31 00:09:06;;;;;;;5.88;2.10;;;10.60;99.90;;;;;;5095731;28;20479;-77
2023/10/31 00:11:31;;;;;;;7.03;1.20;;;10.60;99.90;;;;;;5077497;28;20410;-77
2023/10/31 00:13:57;;;;;;;5.78;1.70;;;10.50;99.90;;;;;;5077441;28;20059;-77
2023/10/31 00:16:23;;;;;;;9.35;1.40;;;10.50;99.90;;;;;;5077457;28;20051;-77
2023/10/31 00:18:49;;;;;;;8.45;1.48;;;10.50;99.90;;;;;;5077011;28;20056;-77
2023/10/31 00:21:14;;;;;;;10.93;1.50;;;10.50;99.90;;;;;;5077287;28;20044;-77
2023/10/31 00:23:47;;;;;;;6.97;1.27;;;10.50;99.90;;;;;;5077603;28;20123;-77
2023/10/31 00:26:14;;;;;;;7.07;1.45;;;10.50;99.90;;;;;;5077267;28;20052;-77
2023/10/31 00:28:39;;;;;;;7.45;1.15;;;10.50;99.90;;;;;;5077258;28;20085;-77
2023/10/31 00:31:06;;;;;;;5.28;1.23;;;10.50;99.90;;;;;;5077017;28;20047;-77
2023/10/31 00:33:32;;;;;;;9.65;1.70;;;10.50;99.90;;;;;;5077052;28;20055;-77
2023/10/31 00:35:58;;;;;;;15.73;1.60;;;10.50;99.90;;;;;;5077174;28;20040;-77
2023/10/31 00:38:23;;;;;;;9.13;1.55;;;10.50;99.90;;;;;;5076781;28;20510;-76
2023/10/31 00:40:49;;;;;;;6.47;0.82;;;10.50;99.90;;;;;;5094503;28;20048;-76
2023/10/31 00:43:17;;;;;;;9.25;1.30;;;10.50;99.90;;;;;;5076843;28;20043;-77
2023/10/31 00:45:43;;;;;;;9.98;1.30;;;10.40;99.90;;;;;;5076671;28;20051;-76
2023/10/31 00:48:08;;;;;;;6.22;1.63;;;10.50;99.90;;;;;;5076733;28;20044;-77
2023/10/31 00:50:34;;;;;;;4.72;1.35;;;10.50;99.90;;;;;;5094818;28;20036;-76
2023/10/31 00:52:59;;;;;;;11.63;1.40;;;10.50;99.90;;;;;;5076792;28;20078;-77
2023/10/31 00:55:25;;;;;;;11.23;1.52;;;10.40;99.90;;;;;;5076675;28;20067;-77
2023/10/31 00:57:51;;;;;;;12.05;2.22;;;10.40;99.90;;;;;;5076566;28;20556;-77
2023/10/31 01:00:17;;;;;;;7.55;1.75;;;10.40;99.90;;;;;;5076440;28;20127;-76
2023/10/31 01:02:42;;;;;;;8.82;1.48;;;10.40;99.90;;;;;;5076670;28;20044;-76
2023/10/31 01:05:08;;;;;;;6.25;1.20;;;10.40;99.90;;;;;;5076313;28;20048;-76
2023/10/31 01:07:34;;;;;;;12.93;2.30;;;10.40;99.90;;;;;;5076426;28;20055;-76
2023/10/31 01:10:00;;;;;;;10.65;1.95;;;10.40;99.90;;;;;;5076389;28;20044;-76
2023/10/31 01:12:27;;;;;;;10.65;1.92;;;10.30;99.90;;;;;;5094426;28;20493;-76
2023/10/31 01:14:54;;;;;;;10.75;2.53;;;10.40;99.90;;;;;;5075673;28;20044;-76
2023/10/31 01:17:20;;;;;;;10.52;2.05;;;10.40;99.90;;;;;;5076150;28;20123;-76
2023/10/31 01:19:48;;;;;;;16.52;2.08;;;10.40;99.90;;;;;;5076048;28;20048;-76
2023/10/31 01:22:13;;;;;;;10.05;2.15;;;10.40;99.90;;;;;;5076177;28;20056;-76
2023/10/31 01:24:39;;;;;;;9.45;1.55;;;10.40;99.90;;;;;;5076358;28;20052;-76
2023/10/31 01:27:05;;;;;;;11.32;1.70;;;10.40;99.90;;;;;;5076642;28;20127;-76
2023/10/31 01:29:30;;;;;;;8.40;1.40;;;10.40;99.90;;;;;;5076158;28;20132;-76
2023/10/31 01:31:56;;;;;;;10.95;2.03;;;10.30;99.90;;;;;;5075984;28;20395;-76
2023/10/31 01:34:22;;;;;;;13.00;2.08;;;10.30;99.90;;;;;;5075990;28;20051;-76
2023/10/31 01:36:48;;;;;;;10.05;1.98;;;10.30;99.90;;;;;;5075969;28;20046;-76
2023/10/31 01:39:13;;;;;;;11.98;2.17;;;10.30;99.90;;;;;;5093716;28;20044;-76
2023/10/31 01:41:43;;;;;;;11.80;1.70;;;10.30;99.90;;;;;;5075868;28;20048;-77
2023/10/31 01:44:09;;;;;;;14.80;1.70;;;10.30;99.90;;;;;;5075759;28;20089;-76
2023/10/31 01:46:35;;;;;;;9.55;1.92;;;10.30;99.90;;;;;;5093903;28;20063;-76
2023/10/31 01:49:01;;;;;;;16.42;2.00;;;10.30;99.90;;;;;;5076110;28;20384;-76
2023/10/31 01:51:28;;;;;;;8.15;1.70;;;10.20;99.90;;;;;;5075827;28;20051;-76
2023/10/31 01:53:53;;;;;;;11.23;2.75;;;10.20;99.90;;;;;;5075680;28;20047;-77
2023/10/31 01:56:21;;;;;;;14.98;2.15;;;10.20;99.90;;;;;;5075799;28;20104;-76
2023/10/31 01:58:48;;;;;;;22.50;3.92;;;10.20;99.90;;;;;;5075777;28;20048;-76
2023/10/31 02:01:14;;;;;;;15.73;2.17;;;10.30;99.90;;;;;;5075585;28;20124;-76
2023/10/31 02:03:43;;;;;;;12.23;2.15;;;10.30;99.90;;;;;;5075931;28;20123;-76
2023/10/31 02:06:08;;;;;;;19.23;2.25;;;10.30;99.90;;;;;;5093612;28;20070;-76
2023/10/31 02:08:34;;;;;;;17.30;2.10;;;10.40;99.90;;;;;;5075888;28;20376;-76
2023/10/31 02:11:00;;;;;;;15.82;1.88;;;10.40;99.90;;;;;;5075444;28;20059;-76
2023/10/31 02:13:26;;;;;;;15.05;2.20;;;10.30;99.90;;;;;;5075380;28;20076;-76
2023/10/31 02:15:52;;;;;;;16.67;2.47;;;10.40;99.90;;;;;;5075698;28;20036;-76
2023/10/31 02:18:19;;;;;;;13.25;2.92;;;10.40;99.90;;;;;;5075128;28;20487;-77
2023/10/31 02:20:45;;;;;;;12.32;2.50;;;10.40;99.90;;;;;;5075716;28;20052;-77
2023/10/31 02:23:10;;;;;;;17.00;2.55;;;10.30;99.90;;;;;;5093641;28;20356;-77
2023/10/31 02:25:36;;;;;;;13.45;2.92;;;10.40;99.90;;;;;;5075634;28;20475;-77
2023/10/31 02:28:02;;;;;;;12.40;2.53;;;10.40;99.90;;;;;;5079404;28;20497;-77
2023/10/31 02:30:27;;;;;;;13.60;3.30;;;10.40;99.90;;;;;;5079425;28;20040;-77
2023/10/31 02:32:53;;;;;;;13.02;3.50;;;10.40;99.90;;;;;;5079525;28;20051;-77
2023/10/31 02:35:19;;;;;;;10.43;3.42;;;10.40;99.90;;;;;;5079631;28;20040;-77
2023/10/31 02:37:46;;;;;;;13.65;3.72;;;10.40;99.90;;;;;;5079541;28;20489;-77
2023/10/31 02:40:12;;;;;;;19.80;5.10;;;10.40;99.90;;;;;;5079354;28;20047;-77
2023/10/31 02:42:37;;;;;;;9.75;3.33;;;10.40;99.90;;;;;;5079023;28;20044;-77
2023/10/31 02:45:03;;;;;;;14.93;4.13;;;10.40;99.90;;;;;;5097100;28;20040;-77
2023/10/31 02:47:29;;;;;;;10.35;3.78;;;10.40;99.90;;;;;;5079074;28;20475;-77
2023/10/31 02:49:55;;;;;;;11.75;3.03;;;10.40;99.90;;;;;;5079223;28;20047;-77
2023/10/31 02:52:20;;;;;;;8.50;2.97;;;10.40;99.90;;;;;;5079136;28;20043;-77
2023/10/31 02:54:46;;;;;;;12.07;2.75;;;10.40;99.90;;;;;;5096957;28;20066;-77
2023/10/31 02:57:12;;;;;;;12.60;2.78;;;10.40;99.90;;;;;;5078734;28;20229;-77
2023/10/31 02:59:37;;;;;;;11.57;2.90;;;10.40;99.90;;;;;;5078730;28;20105;-77
2023/10/31 03:02:03;;;;;;;17.65;2.95;;;10.40;99.90;;;;;;5078890;28;20055;-77
2023/10/31 03:04:28;;;;;;;12.25;2.78;;;10.40;99.90;;;;;;5078835;28;20055;-77
2023/10/31 03:06:54;;;;;;;16.60;3.08;;;10.40;99.90;;;;;;5079042;28;20087;-77
2023/10/31 03:09:20;;;;;;;13.65;2.88;;;10.40;99.90;;;;;;5078645;28;20515;-77
2023/10/31 03:11:45;;;;;;;14.55;3.80;;;10.40;99.90;;;;;;5078657;28;20049;-77
2023/10/31 03:14:11;;;;;;;14.10;3.38;;;10.40;99.90;;;;;;5078855;28;20044;-77
2023/10/31 03:16:36;;;;;;;17.48;3.10;;;10.40;99.90;;;;;;5096612;28;20490;-77
2023/10/31 03:19:02;;;;;;;16.48;2.95;;;10.40;99.90;;;;;;5096361;28;20138;-77
2023/10/31 03:21:29;;;;;;;19.55;2.78;;;10.40;99.90;;;;;;5078295;28;20438;-77
2023/10/31 03:23:55;;;;;;;10.73;2.60;;;10.40;99.90;;;;;;5078535;28;20534;-77
2023/10/31 03:26:21;;;;;;;20.67;2.90;;;10.40;99.90;;;;;;5078260;28;20072;-77
2023/10/31 03:28:47;;;;;;;10.15;2.17;;;10.40;99.90;;;;;;5078505;28;20040;-77
2023/10/31 03:31:14;;;;;;;9.20;1.73;;;10.40;99.90;;;;;;5078505;28;20063;-77
2023/10/31 03:33:40;;;;;;;9.77;2.10;;;10.40;99.90;;;;;;5078146;28;20082;-77
2023/10/31 03:36:08;;;;;;;11.80;1.42;;;10.40;99.90;;;;;;5078165;28;20468;-77
2023/10/31 03:38:34;;;;;;;16.90;2.10;;;10.40;99.90;;;;;;5077713;28;20491;-77
2023/10/31 03:41:00;;;;;;;10.70;1.95;;;10.40;99.90;;;;;;5078207;28;20036;-77
2023/10/31 03:43:26;;;;;;;12.75;1.77;;;10.40;99.90;;;;;;5078070;28;20047;-77
2023/10/31 03:45:52;;;;;;;12.63;1.98;;;10.40;99.90;;;;;;5078371;28;20044;-77
2023/10/31 03:48:18;;;;;;;10.02;2.45;;;10.40;99.90;;;;;;5078267;28;20399;-77
2023/10/31 03:50:43;;;;;;;11.15;1.60;;;10.40;99.90;;;;;;5078256;28;20047;-77
2023/10/31 03:53:09;;;;;;;11.10;1.90;;;10.40;99.90;;;;;;5077676;28;20047;-77
2023/10/31 03:55:35;;;;;;;8.75;2.13;;;10.40;99.90;;;;;;5077729;28;20395;-77
2023/10/31 03:58:00;;;;;;;11.18;1.85;;;10.30;99.90;;;;;;5078127;28;20101;-77
2023/10/31 04:00:26;;;;;;;3.97;1.02;;;10.40;99.90;;;;;;5077634;28;20058;-77
2023/10/31 04:02:52;;;;;;;7.38;1.30;;;10.40;99.90;;;;;;5077789;28;20059;-77
2023/10/31 04:05:18;;;;;;;13.73;1.75;;;10.30;99.90;;;;;;5077974;28;20040;-77
2023/10/31 04:07:44;;;;;;;3.33;1.00;;;10.30;99.90;;;;;;5077724;28;20143;-77
2023/10/31 04:10:10;;;;;;;6.22;1.23;;;10.30;99.90;;;;;;5077480;28;20123;-77
2023/10/31 04:12:35;;;;;;;4.97;1.05;;;10.30;99.90;;;;;;5077442;28;20075;-77
2023/10/31 04:15:02;;;;;;;4.88;0.75;;;10.30;99.90;;;;;;5077549;28;20079;-77
2023/10/31 04:17:27;;;;;;;7.03;1.00;;;10.30;99.90;;;;;;5077697;28;20538;-77
2023/10/31 04:19:58;;;;;;;3.42;1.00;;;10.30;99.90;;;;;;5077063;28;20136;-77
2023/10/31 04:22:24;;;;;;;5.18;1.00;;;10.20;99.90;;;;;;5095430;28;20052;-77
2023/10/31 04:24:49;;;;;;;7.97;1.10;;;10.20;99.90;;;;;;5077219;28;20123;-77
2023/10/31 04:27:15;;;;;;;5.28;1.10;;;10.20;99.90;;;;;;5095280;28;20079;-77
2023/10/31 04:29:41;;;;;;;4.53;1.20;;;10.20;99.90;;;;;;5077173;28;20509;-77
2023/10/31 04:32:06;;;;;;;5.70;1.17;;;10.20;99.90;;;;;;5076781;28;20463;-76
2023/10/31 04:34:32;;;;;;;4.95;1.00;;;10.20;99.90;;;;;;5077175;28;20088;-77
2023/10/31 04:36:57;;;;;;;8.90;1.30;;;10.20;99.90;;;;;;5076772;28;20088;-77
2023/10/31 04:39:24;;;;;;;6.22;1.00;;;10.20;99.90;;;;;;5076854;28;20044;-77
2023/10/31 04:41:49;;;;;;;6.32;1.90;;;10.20;99.90;;;;;;5095013;28;20047;-77
2023/10/31 04:44:16;;;;;;;6.97;1.27;;;10.20;99.90;;;;;;5077187;28;20383;-77
2023/10/31 04:46:42;;;;;;;6.13;1.27;;;10.20;99.90;;;;;;5076835;28;20515;-77
2023/10/31 04:49:08;;;;;;;4.70;1.08;;;10.10;99.90;;;;;;5076179;28;20170;-77
2023/10/31 04:51:38;;;;;;;3.95;1.23;;;10.10;99.90;;;;;;5076520;28;20381;-77
2023/10/31 04:54:04;;;;;;;6.00;1.40;;;10.10;99.90;;;;;;5094907;28;20039;-77
2023/10/31 04:56:30;;;;;;;7.50;1.33;;;10.10;99.90;;;;;;5076773;28;20497;-77
2023/10/31 04:58:56;;;;;;;4.53;1.50;;;10.10;99.90;;;;;;5094770;28;20044;-77
2023/10/31 05:01:21;;;;;;;9.00;1.60;;;10.10;99.90;;;;;;5094708;28;20040;-77
2023/10/31 05:03:47;;;;;;;5.35;1.40;;;10.10;99.90;;;;;;5076805;28;20059;-77
2023/10/31 05:06:12;;;;;;;5.20;1.45;;;10.10;99.90;;;;;;5076466;28;20125;-77
2023/10/31 05:08:38;;;;;;;5.47;1.42;;;10.10;99.90;;;;;;5076448;28;20060;-76
2023/10/31 05:11:04;;;;;;;6.68;1.33;;;10.10;99.90;;;;;;5076548;28;20487;-77
2023/10/31 05:13:29;;;;;;;8.25;1.42;;;10.10;99.90;;;;;;5076360;28;20429;-77
2023/10/31 05:15:55;;;;;;;5.22;1.50;;;10.10;99.90;;;;;;5076154;28;20044;-76
2023/10/31 05:18:22;;;;;;;6.22;1.60;;;10.10;99.90;;;;;;5076381;28;20479;-77
2023/10/31 05:20:47;;;;;;;4.00;1.33;;;10.10;99.90;;;;;;5076095;28;20066;-77
2023/10/31 05:23:14;;;;;;;7.35;1.50;;;10.20;99.90;;;;;;5076149;28;20047;-77
2023/10/31 05:25:39;;;;;;;5.15;1.40;;;10.20;99.90;;;;;;5076262;28;20093;-77
2023/10/31 05:28:05;;;;;;;8.68;2.30;;;10.20;99.90;;;;;;5076459;28;20467;-77
2023/10/31 05:30:31;;;;;;;6.90;1.98;;;10.20;99.90;;;;;;5076037;28;20433;-77
2023/10/31 05:32:56;;;;;;;5.78;1.75;;;10.20;99.90;;;;;;5075831;28;20044;-77
2023/10/31 05:35:22;;;;;;;7.78;2.08;;;10.20;99.90;;;;;;5075713;28;20093;-76
2023/10/31 05:37:48;;;;;;;5.97;2.15;;;10.20;99.90;;;;;;5076036;28;20056;-76
2023/10/31 05:40:15;;;;;;;7.93;2.00;;;10.20;99.90;;;;;;5076184;28;20530;-77
2023/10/31 05:42:42;;;;;;;6.97;2.33;;;10.20;99.90;;;;;;5075827;28;20075;-77
2023/10/31 05:45:08;;;;;;;8.82;2.50;;;10.20;99.90;;;;;;5076112;28;20043;-77
2023/10/31 05:47:33;;;;;;;9.23;2.58;;;10.30;99.90;;;;;;5075736;28;20040;-77
2023/10/31 05:49:59;;;;;;;7.78;2.65;;;10.20;99.90;;;;;;5076017;28;20048;-77
2023/10/31 05:52:29;;;;;;;5.90;2.47;;;10.30;99.90;;;;;;5075826;28;20510;-77
2023/10/31 05:54:56;;;;;;;8.25;2.95;;;10.30;99.90;;;;;;5075790;28;20059;-77
2023/10/31 05:57:22;;;;;;;13.02;2.63;;;10.30;99.90;;;;;;5075984;28;20123;-77
2023/10/31 05:59:47;;;;;;;9.48;2.55;;;10.30;99.90;;;;;;5075514;28;20578;-77
2023/10/31 06:02:14;;;;;;;7.78;2.30;;;10.20;99.90;;;;;;5075734;28;20123;-77
2023/10/31 06:04:39;;;;;;;8.63;2.25;;;10.30;99.90;;;;;;5093752;28;20131;-77
2023/10/31 06:07:05;;;;;;;4.55;1.80;;;10.20;99.90;;;;;;5093775;28;20070;-77
2023/10/31 06:09:33;;;;;;;7.53;2.40;;;10.30;99.90;;;;;;5075857;28;20052;-77
2023/10/31 06:11:59;;;;;;;10.77;2.20;;;10.30;99.90;;;;;;5093646;28;20052;-77
2023/10/31 06:14:25;;;;;;;9.38;1.95;;;10.20;99.90;;;;;;5093612;28;20052;-77
2023/10/31 06:16:51;;;;;;;5.90;1.63;;;10.30;99.90;;;;;;5093714;28;20064;-77
2023/10/31 06:19:18;;;;;;;7.28;1.70;;;10.20;99.90;;;;;;5075022;28;20103;-77
2023/10/31 06:21:44;;;;;;;10.88;2.08;;;10.30;99.90;;;;;;5075637;28;20411;-77
2023/10/31 06:24:10;;;;;;;8.82;2.08;;;10.30;99.90;;;;;;5075414;28;20044;-77
2023/10/31 06:26:36;;;;;;;6.00;1.88;;;10.30;99.90;;;;;;5075541;28;20047;-78
2023/10/31 06:29:01;;;;;;;8.57;1.83;;;10.30;99.90;;;;;;5075521;28;20036;-77
2023/10/31 06:31:27;;;;;;;7.00;1.42;;;10.30;99.90;;;;;;5075353;28;20519;-77
2023/10/31 06:33:53;;;;;;;8.00;1.58;;;10.30;99.90;;;;;;5075175;28;20066;-78
2023/10/31 06:36:18;;;;;;;4.72;1.33;;;10.30;99.90;;;;;;5075232;28;20472;-77
2023/10/31 06:38:44;;;;;;;5.00;1.25;;;10.30;99.90;;;;;;5075062;28;20052;-78
2023/10/31 06:41:10;;;;;;;8.57;1.25;;;10.30;99.90;;;;;;5074896;28;20066;-77
2023/10/31 06:43:35;;;;;;;6.47;1.25;;;10.20;99.90;;;;;;5074342;28;20051;-78
2023/10/31 06:46:03;;;;;;;8.98;1.67;;;10.30;99.90;;;;;;5075007;28;20402;-78
2023/10/31 06:48:29;;;;;;;6.65;1.05;;;10.20;99.90;;;;;;5075107;28;20091;-78
2023/10/31 06:50:55;;;;;;;8.13;0.95;;;10.20;99.90;;;;;;5075314;28;20075;-78
2023/10/31 06:53:21;;;;;;;6.90;0.80;;;10.20;99.90;;;;;;5074744;28;20055;-78
2023/10/31 06:55:47;;;;;;;5.55;1.00;;;10.20;99.90;;;;;;5075141;28;20430;-78
2023/10/31 06:58:12;;;;;;;4.07;0.65;;;10.30;99.90;;;;;;5092788;28;20048;-78
2023/10/31 07:00:38;;;;;;;7.60;1.05;;;10.20;99.90;;;;;;5075086;28;20431;-78
2023/10/31 07:03:08;;;;;;;12.55;1.13;;;10.20;99.90;;;;;;5074936;28;20131;-78
2023/10/31 07:05:37;;;;;;;7.93;0.90;;;10.20;99.90;;;;;;5093069;28;20048;-77
2023/10/31 07:08:04;;;;;;;8.63;0.70;;;10.20;99.90;;;;;;5074879;28;20441;-78
2023/10/31 07:10:30;;;;;;;10.43;0.82;;;10.30;99.90;;;;;;5092850;28;20047;-78
2023/10/31 07:12:55;;;;;;;4.97;0.77;;;10.30;99.90;;;;;;5076521;28;20048;-78
2023/10/31 07:15:21;;;;;;;4.18;0.70;;;10.30;99.90;;;;;;5078438;28;20482;-78
2023/10/31 07:17:47;;;;;;;3.63;0.60;;;10.30;99.90;;;;;;5078361;28;20474;-78
2023/10/31 07:20:14;;;;;;;2.95;0.40;;;10.30;99.90;;;;;;5078039;28;20534;-77
2023/10/31 07:22:40;;;;;;;4.95;0.50;;;10.40;99.90;;;;;;5078361;28;20044;-78
2023/10/31 07:25:06;;;;;;;9.38;1.13;;;10.40;99.90;;;;;;5078128;28;20052;-77
2023/10/31 07:27:32;;;;;;;6.68;1.20;;;10.60;99.90;;;;;;5096580;28;20073;-78
2023/10/31 07:29:58;;;;;;;9.60;1.02;;;10.60;99.90;;;;;;5093838;28;20044;-76
2023/10/31 07:32:24;;;;;;;13.20;1.80;;;10.70;99.90;;;;;;5084965;28;20033;-76
2023/10/31 07:34:50;;;;;;;14.75;1.13;;;10.70;99.90;;;;;;5057787;28;20408;-77
2023/10/31 07:37:16;;;;;;;19.23;1.85;;;10.80;99.90;;;;;;5057896;28;20046;-77
2023/10/31 07:39:42;;;;;;;19.05;2.33;;;10.80;99.90;;;;;;5075507;28;20610;-76
2023/10/31 07:42:08;;;;;;;15.40;2.70;;;10.90;99.90;;;;;;5075801;28;20499;-76
2023/10/31 07:44:34;;;;;;;15.95;1.58;;;11.00;99.90;;;;;;5057814;28;20403;-79
2023/10/31 07:46:59;;;;;;;13.85;1.88;;;11.10;99.90;;;;;;5057537;28;20049;-76
2023/10/31 07:49:25;;;;;;;10.52;1.05;;;11.20;99.90;;;;;;5075326;28;20092;-77
2023/10/31 07:51:51;;;;;;;11.38;1.92;;;11.20;99.90;;;;;;5075573;28;20055;-77
2023/10/31 07:54:17;;;;;;;8.65;1.73;;;11.30;99.90;;;;;;5057121;28;20048;-77
2023/10/31 07:56:42;;;;;;;13.43;1.33;;;11.40;99.90;;;;;;5057340;28;20099;-76
2023/10/31 07:59:08;;;;;;;8.35;1.60;;;11.40;99.90;;;;;;5057316;28;20091;-76
2023/10/31 08:01:35;;;;;;;12.65;1.40;;;11.50;99.90;;;;;;5075166;28;20076;-77
2023/10/31 08:04:01;;;;;;;11.02;1.00;;;11.40;99.90;;;;;;5057288;28;20134;-76
2023/10/31 08:06:26;;;;;;;9.60;1.02;;;11.50;99.90;;;;;;5057404;28;20480;-76
2023/10/31 08:08:52;;;;;;;11.05;0.70;;;11.50;99.90;;;;;;5057151;28;20043;-76
2023/10/31 08:11:18;;;;;;;10.82;2.15;;;11.50;99.90;;;;;;5057027;28;20040;-77
2023/10/31 08:13:44;;;;;;;8.75;0.80;;;11.50;99.90;;;;;;5056991;28;20048;-76
2023/10/31 08:16:10;;;;;;;8.32;1.25;;;11.50;99.90;;;;;;5057178;28;20041;-75
2023/10/31 08:18:36;;;;;;;9.25;1.80;;;11.50;99.90;;;;;;5056568;28;20466;-77
2023/10/31 08:21:03;;;;;;;3.92;0.60;;;11.50;99.90;;;;;;5056871;28;20049;-76
2023/10/31 08:23:28;;;;;;;12.25;1.17;;;11.50;99.90;;;;;;5074927;28;20127;-76
2023/10/31 08:25:54;;;;;;;8.30;1.13;;;11.50;99.90;;;;;;5057030;28;20140;-76
2023/10/31 08:28:20;;;;;;;9.40;1.10;;;11.50;99.90;;;;;;5056683;28;20047;-75
2023/10/31 08:30:46;;;;;;;6.28;0.90;;;11.50;99.90;;;;;;5056555;28;20047;-76
2023/10/31 08:33:12;;;;;;;4.68;0.47;;;11.50;99.90;;;;;;5056567;28;20053;-77
2023/10/31 08:35:38;;;;;;;4.43;1.20;;;11.50;99.90;;;;;;5056805;28;20051;-77
2023/10/31 08:38:03;;;;;;;8.02;0.50;;;11.40;99.90;;;;;;5056403;28;20430;-77
2023/10/31 08:40:29;;;;;;;4.90;0.75;;;11.40;99.90;;;;;;5056875;28;20052;-76
2023/10/31 08:42:55;;;;;;;9.02;0.50;;;11.40;99.90;;;;;;5056763;28;20052;-76
2023/10/31 08:45:21;;;;;;;9.48;0.80;;;11.40;99.90;;;;;;5056518;28;20422;-76
2023/10/31 08:47:47;;;;;;;4.13;0.40;;;11.40;99.90;;;;;;5056396;28;20398;-76
2023/10/31 08:50:13;;;;;;;12.10;1.00;;;11.40;99.90;;;;;;5056373;28;20119;-76
2023/10/31 08:52:39;;;;;;;9.13;0.82;;;11.30;99.90;;;;;;5073995;28;20131;-75
2023/10/31 08:55:06;;;;;;;9.35;1.17;;;11.30;99.90;;;;;;5074403;28;20127;-75
2023/10/31 08:57:33;;;;;;;10.43;0.93;;;11.30;99.90;;;;;;5056490;28;20037;-76
2023/10/31 08:59:59;;;;;;;4.85;1.00;;;11.30;99.90;;;;;;5056110;28;20066;-76
2023/10/31 09:02:25;;;;;;;10.57;1.02;;;11.30;99.90;;;;;;5074148;28;20040;-76
2023/10/31 09:04:50;;;;;;;7.40;0.63;;;11.30;99.90;;;;;;5073766;28;20399;-76
2023/10/31 09:07:16;;;;;;;3.05;0.70;;;11.30;99.90;;;;;;5056168;28;20037;-75
2023/10/31 09:09:42;;;;;;;12.90;0.80;;;11.30;99.90;;;;;;5055888;28;20179;-75
2023/10/31 09:12:08;;;;;;;5.30;0.80;;;11.30;99.90;;;;;;5056053;28;20048;-76
2023/10/31 09:14:35;;;;;;;6.25;0.43;;;11.40;99.90;;;;;;5073677;28;20404;-77
2023/10/31 09:17:01;;;;;;;6.75;0.90;;;11.40;99.90;;;;;;5055887;28;20403;-76
2023/10/31 09:19:28;;;;;;;8.65;1.02;;;11.40;99.90;;;;;;5055737;28;20556;-77
2023/10/31 09:21:55;;;;;;;7.15;0.60;;;11.40;99.90;;;;;;5055577;28;20511;-76
2023/10/31 09:24:21;;;;;;;7.43;0.60;;;11.40;99.90;;;;;;5055794;28;20396;-76
2023/10/31 09:26:46;;;;;;;7.25;1.13;;;11.40;99.90;;;;;;5055952;28;20040;-79
2023/10/31 09:29:12;;;;;;;8.32;0.85;;;11.50;99.90;;;;;;5073743;28;20044;-78
2023/10/31 09:31:37;;;;;;;8.60;0.73;;;11.50;99.90;;;;;;5073603;28;20048;-78
2023/10/31 09:34:03;;;;;;;5.38;0.95;;;11.50;99.90;;;;;;5055566;28;20123;-78
2023/10/31 09:36:32;;;;;;;8.13;0.85;;;11.60;99.90;;;;;;5073272;28;20051;-81
2023/10/31 09:38:57;;;;;;;7.68;1.40;;;11.50;99.90;;;;;;5055545;28;20529;-75
2023/10/31 09:41:23;;;;;;;9.77;0.98;;;11.50;99.90;;;;;;5073365;28;20075;-77
2023/10/31 09:43:50;;;;;;;6.15;0.60;;;11.50;99.90;;;;;;5055517;28;20381;-76
2023/10/31 09:46:16;;;;;;;7.80;0.73;;;11.50;99.90;;;;;;5055296;28;20488;-76
2023/10/31 09:48:43;;;;;;;8.68;0.80;;;11.50;99.90;;;;;;5055646;28;20498;-76
2023/10/31 09:51:11;;;;;;;11.18;1.33;;;11.50;99.90;;;;;;5073155;28;20036;-76
2023/10/31 09:53:38;;;;;;;4.03;0.60;;;11.60;99.90;;;;;;5073081;28;20044;-76
2023/10/31 09:56:05;;;;;;;9.82;1.17;;;11.60;99.90;;;;;;5055393;28;20548;-76
2023/10/31 09:58:31;;;;;;;5.90;1.50;;;11.60;99.90;;;;;;5055376;28;20052;-76
2023/10/31 10:00:57;;;;;;;5.57;0.70;;;11.60;99.90;;;;;;5073412;28;20048;-76
2023/10/31 10:03:23;;;;;;;9.70;1.35;;;11.70;99.90;;;;;;5055157;28;20107;-75
2023/10/31 10:05:49;;;;;;;4.43;0.70;;;11.60;99.90;;;;;;5055146;28;20483;-77
2023/10/31 10:08:16;;;;;;;10.10;0.75;;;11.60;99.90;;;;;;5055203;28;20048;-76
2023/10/31 10:10:42;;;;;;;6.97;1.08;;;11.60;99.90;;;;;;5055114;28;20059;-76
2023/10/31 10:13:08;;;;;;;8.00;0.73;;;11.60;99.90;;;;;;5054949;28;20040;-75
2023/10/31 10:15:53;;;;;;;14.10;1.10;;;11.60;99.90;;;;;;5055383;28;20090;-76
2023/10/31 10:18:29;;;;;;;4.88;0.77;;;11.60;99.90;;;;;;5055080;28;20080;-76
2023/10/31 10:21:01;;;;;;;4.95;1.08;;;11.70;99.90;;;;;;5072986;28;20044;-79
2023/10/31 10:23:28;;;;;;;6.20;1.27;;;11.70;99.90;;;;;;5054977;28;20045;-78
2023/10/31 10:25:55;;;;;;;9.40;0.90;;;11.70;99.90;;;;;;5054954;28;20040;-80
2023/10/31 10:28:21;;;;;;;6.85;0.90;;;11.70;99.90;;;;;;5055176;28;20135;-79
2023/10/31 10:30:48;;;;;;;4.30;0.65;;;11.70;99.90;;;;;;5054913;28;20542;-79
2023/10/31 10:33:15;;;;;;;10.65;1.30;;;11.80;99.90;;;;;;5054937;28;20040;-78
2023/10/31 10:35:41;;;;;;;6.60;0.80;;;11.90;99.90;;;;;;5072757;28;20495;-78
2023/10/31 10:38:12;;;;;;;6.95;1.30;;;11.90;99.90;;;;;;5055110;28;20556;-78
2023/10/31 10:40:43;;;;;;;6.22;1.00;;;12.00;99.90;;;;;;5054997;28;20106;-78
2023/10/31 10:43:22;;;;;;;12.27;1.10;;;12.00;99.90;;;;;;5054877;28;20127;-79
2023/10/31 10:45:56;;;;;;;11.35;1.40;;;12.10;99.90;;;;;;5054925;28;20072;-79
2023/10/31 10:48:23;;;;;;;4.80;0.82;;;12.10;99.90;;;;;;5057726;28;20063;-79
2023/10/31 10:50:59;;;;;;;4.57;0.60;;;12.10;99.90;;;;;;5058758;28;20132;-77
2023/10/31 10:53:29;;;;;;;6.68;0.95;;;12.10;99.90;;;;;;5058615;28;20136;-76
2023/10/31 10:56:03;;;;;;;9.48;1.05;;;12.10;99.90;;;;;;5058776;28;20124;-76
2023/10/31 10:58:52;;;;;;;7.18;1.17;;;12.30;99.90;;;;;;5058531;28;20056;-76
2023/10/31 11:01:19;;;;;;;7.47;0.70;;;12.40;99.90;;;;;;5058819;28;20102;-76
2023/10/31 11:03:46;;;;;;;6.30;1.00;;;12.50;99.90;;;;;;5076470;28;20051;-76
2023/10/31 11:06:13;;;;;;;6.57;1.05;;;12.40;99.90;;;;;;5076203;28;20067;-75
2023/10/31 11:08:40;;;;;;;10.75;1.05;;;12.40;99.90;;;;;;5058372;28;20064;-76
2023/10/31 11:11:06;;;;;;;4.22;0.60;;;12.40;99.90;;;;;;5058323;28;20056;-76
2023/10/31 11:13:32;;;;;;;6.07;0.90;;;12.40;99.90;;;;;;5058104;28;20044;-76
2023/10/31 11:16:05;;;;;;;11.70;1.33;;;12.30;99.90;;;;;;5058174;28;20051;-76
2023/10/31 11:18:31;;;;;;;8.98;1.10;;;12.30;99.90;;;;;;5058056;28;20067;-76
2023/10/31 11:20:57;;;;;;;8.13;0.88;;;12.30;99.90;;;;;;5076270;28;20044;-76
2023/10/31 11:23:23;;;;;;;6.43;1.00;;;12.20;99.90;;;;;;5058096;28;20106;-76
2023/10/31 11:25:53;;;;;;;7.28;1.40;;;12.20;99.90;;;;;;5057977;28;20045;-76
2023/10/31 11:28:19;;;;;;;6.40;0.98;;;12.20;99.90;;;;;;5076143;28;20048;-76
2023/10/31 11:30:48;;;;;;;5.10;0.77;;;12.10;99.90;;;;;;5058055;28;20547;-76
2023/10/31 11:33:16;;;;;;;11.45;1.05;;;12.20;99.90;;;;;;5057642;28;20060;-76
2023/10/31 11:35:44;;;;;;;5.55;1.00;;;12.20;99.90;;;;;;5075911;28;20036;-75
2023/10/31 11:38:12;;;;;;;10.25;0.82;;;12.10;99.90;;;;;;5075872;28;20048;-77
2023/10/31 11:40:50;;;;;;;6.43;1.05;;;12.10;99.90;;;;;;5057652;28;20090;-77
2023/10/31 11:43:16;;;;;;;6.38;0.65;;;12.00;99.90;;;;;;5057626;28;20049;-76
2023/10/31 11:45:44;;;;;;;5.32;0.85;;;12.00;99.90;;;;;;5075351;28;20047;-76
2023/10/31 11:48:10;;;;;;;6.10;0.77;;;11.80;99.90;;;;;;5057623;28;20083;-77
2023/10/31 11:50:38;;;;;;;9.68;0.65;;;11.80;99.90;;;;;;5057229;28;20036;-76
2023/10/31 11:53:05;;;;;;;6.40;0.95;;;11.70;99.90;;;;;;5057321;28;20049;-76
2023/10/31 11:55:35;;;;;;;8.95;0.82;;;11.60;99.90;;;;;;5057589;28;20072;-77
2023/10/31 11:58:15;;;;;;;9.82;1.00;;;11.70;99.90;;;;;;5057176;28;20548;-77
2023/10/31 12:00:41;;;;;;;7.43;0.88;;;11.60;99.90;;;;;;5057218;28;20055;-77
2023/10/31 12:03:06;;;;;;;10.70;1.27;;;11.70;99.90;;;;;;5057530;28;20041;-77
2023/10/31 12:05:32;;;;;;;6.18;0.80;;;11.70;99.90;;;;;;5057424;28;20381;-76
2023/10/31 12:07:57;;;;;;;7.18;0.90;;;11.60;99.90;;;;;;5057284;28;20048;-77
2023/10/31 12:10:31;;;;;;;9.70;1.20;;;11.50;99.90;;;;;;5057446;28;20047;-76
2023/10/31 12:12:58;;;;;;;6.63;0.85;;;11.60;99.90;;;;;;5075148;28;20075;-78
2023/10/31 12:15:24;;;;;;;4.80;0.80;;;11.60;99.90;;;;;;5057567;28;20150;-78
2023/10/31 12:17:50;;;;;;;4.90;1.00;;;11.50;99.90;;;;;;5057127;28;20072;-77
2023/10/31 12:20:16;;;;;;;8.93;0.90;;;11.40;99.90;;;;;;5074964;28;20483;-78
2023/10/31 12:22:44;;;;;;;8.38;1.35;;;11.40;99.90;;;;;;5057175;28;20048;-78
2023/10/31 12:25:11;;;;;;;4.35;0.75;;;11.30;99.90;;;;;;5056926;28;20399;-78
2023/10/31 12:27:48;;;;;;;4.60;1.17;;;11.30;99.90;;;;;;5074951;28;20063;-78
2023/10/31 12:30:16;;;;;;;3.00;0.60;;;11.20;99.90;;;;;;5056996;28;20407;-78
2023/10/31 12:32:43;;;;;;;7.13;1.50;;;11.20;99.90;;;;;;5056878;28;20052;-77
2023/10/31 12:35:16;;;;;;;4.38;1.00;;;11.20;99.90;;;;;;5056896;28;20097;-78
2023/10/31 12:37:47;;;;;;;4.57;0.85;;;11.20;99.90;;;;;;5057055;28;20511;-78
2023/10/31 12:40:21;;;;;;;6.75;0.50;;;11.10;99.90;;;;;;5074802;28;20048;-78